createdAt,value
2023-04-05T00:00:32.558Z,40.00
2023-04-05T00:03:13.555Z,35.50
2023-04-05T00:05:40.634Z,39.50
2023-04-05T00:08:13.621Z,35.50
2023-04-05T00:10:41.194Z,35.50
2023-04-05T00:13:09.168Z,0.00
2023-04-05T00:15:36.250Z,37.00
2023-04-05T00:18:04.059Z,32.00
2023-04-05T00:20:31.146Z,37.75
2023-04-05T00:22:58.388Z,37.25
2023-04-05T00:25:25.814Z,35.50
2023-04-05T00:27:53.282Z,38.00
2023-04-05T00:30:23.749Z,36.00
2023-04-05T00:32:51.569Z,34.25
2023-04-05T00:35:18.642Z,34.75
2023-04-05T00:37:46.217Z,32.00
2023-04-05T00:40:13.401Z,31.25
2023-04-05T00:42:40.983Z,34.50
2023-04-05T00:45:08.380Z,33.75
2023-04-05T00:47:35.978Z,38.50
2023-04-05T00:50:03.717Z,36.50
2023-04-05T00:52:31.245Z,35.75
2023-04-05T00:54:58.805Z,40.00
2023-04-05T00:57:26.586Z,38.00
2023-04-05T00:59:53.688Z,38.50
2023-04-05T01:02:34.082Z,30.00
2023-04-05T01:05:09.896Z,37.75
2023-04-05T01:07:48.104Z,35.50
2023-04-05T01:10:17.613Z,36.75
2023-04-05T01:12:45.163Z,35.75
2023-04-05T01:15:12.966Z,40.00
2023-04-05T01:17:42.407Z,40.00
2023-04-05T01:20:17.334Z,36.50
2023-04-05T01:23:11.413Z,40.25
2023-04-05T01:25:54.649Z,38.50
2023-04-05T01:28:52.597Z,37.75
2023-04-05T01:31:42.208Z,40.75
2023-04-05T01:34:26.628Z,39.25
2023-04-05T01:36:58.373Z,43.00
2023-04-05T01:39:26.773Z,45.25
2023-04-05T01:42:01.880Z,44.50
2023-04-05T01:44:29.753Z,43.50
2023-04-05T01:46:56.994Z,43.75
2023-04-05T01:49:24.791Z,45.25
2023-04-05T01:51:51.900Z,46.00
2023-04-05T01:54:19.102Z,45.00
2023-04-05T01:56:46.341Z,45.50
2023-04-05T01:59:13.793Z,47.50
2023-04-05T02:01:41.002Z,47.00
2023-04-05T02:04:08.311Z,45.75
2023-04-05T02:06:35.557Z,45.00
2023-04-05T02:09:02.829Z,49.00
2023-04-05T02:11:30.002Z,49.75
2023-04-05T02:13:57.425Z,46.25
2023-04-05T02:16:25.815Z,48.50
2023-04-05T02:18:57.996Z,44.75
2023-04-05T02:21:26.276Z,49.75
2023-04-05T02:23:54.112Z,50.25
2023-04-05T02:26:21.730Z,51.00
2023-04-05T02:28:49.146Z,43.75
2023-04-05T02:31:16.469Z,49.25
2023-04-05T02:33:43.800Z,51.50
2023-04-05T02:36:12.670Z,47.00
2023-04-05T02:38:40.123Z,47.00
2023-04-05T02:41:11.988Z,45.00
2023-04-05T02:43:39.718Z,51.50
2023-04-05T02:46:07.090Z,50.00
2023-04-05T02:48:34.377Z,47.50
2023-04-05T02:51:01.701Z,50.00
2023-04-05T02:53:28.874Z,47.50
2023-04-05T02:55:57.732Z,45.00
2023-04-05T02:58:25.116Z,39.50
2023-04-05T03:00:53.245Z,51.25
2023-04-05T03:03:21.984Z,50.25
2023-04-05T03:05:49.584Z,48.00
2023-04-05T03:08:19.889Z,43.75
2023-04-05T03:10:47.467Z,41.00
2023-04-05T03:13:15.070Z,45.00
2023-04-05T03:15:42.637Z,41.00
2023-04-05T03:18:10.453Z,42.25
2023-04-05T03:20:41.659Z,40.00
2023-04-05T03:23:09.372Z,39.50
2023-04-05T03:25:40.768Z,40.75
2023-04-05T03:28:10.997Z,40.50
2023-04-05T03:30:37.934Z,41.00
2023-04-05T03:33:05.703Z,39.25
2023-04-05T03:35:32.946Z,39.25
2023-04-05T03:38:00.656Z,38.75
2023-04-05T03:40:27.996Z,37.50
2023-04-05T03:42:55.697Z,39.75
2023-04-05T03:45:24.586Z,45.00
2023-04-05T03:48:06.200Z,46.25
2023-04-05T03:50:33.290Z,42.75
2023-04-05T03:53:00.686Z,41.75
2023-04-05T03:55:27.957Z,41.00
2023-04-05T03:57:55.645Z,46.00
2023-04-05T04:00:24.680Z,40.25
2023-04-05T04:02:52.900Z,51.00
2023-04-05T04:05:21.438Z,49.50
2023-04-05T04:07:48.790Z,49.00
2023-04-05T04:10:18.009Z,45.00
2023-04-05T04:12:45.943Z,43.00
2023-04-05T04:15:13.117Z,43.50
2023-04-05T04:17:41.087Z,57.75
2023-04-05T04:20:11.873Z,59.00
2023-04-05T04:22:40.799Z,50.00
2023-04-05T04:25:12.924Z,57.50
2023-04-05T04:27:44.797Z,68.00
2023-04-05T04:30:15.198Z,71.50
2023-04-05T04:32:56.450Z,52.00
2023-04-05T04:35:30.148Z,51.25
2023-04-05T04:37:59.683Z,45.00
2023-04-05T04:40:40.851Z,42.50
2023-04-05T04:43:19.617Z,44.25
2023-04-05T04:45:52.634Z,47.50
2023-04-05T04:48:19.856Z,44.50
2023-04-05T04:50:48.665Z,42.25
2023-04-05T04:53:20.143Z,38.50
2023-04-05T04:55:50.744Z,39.50
2023-04-05T04:58:18.328Z,45.00
2023-04-05T05:00:45.603Z,39.50
2023-04-05T05:03:13.615Z,51.00
2023-04-05T05:05:49.095Z,76.25
2023-04-05T05:08:18.215Z,48.75
2023-04-05T05:10:52.742Z,49.00
2023-04-05T05:13:19.985Z,49.50
2023-04-05T05:15:47.070Z,62.00
2023-04-05T05:18:15.227Z,48.75
2023-04-05T05:20:43.255Z,48.00
2023-04-05T05:23:10.917Z,45.00
2023-04-05T05:25:38.716Z,50.00
2023-04-05T05:28:06.566Z,47.00
2023-04-05T05:30:33.979Z,49.50
2023-04-05T05:33:02.682Z,42.25
2023-04-05T05:35:29.753Z,43.50
2023-04-05T05:37:57.035Z,38.00
2023-04-05T05:40:27.077Z,45.00
2023-04-05T05:42:54.558Z,48.00
2023-04-05T05:45:21.507Z,45.00
2023-04-05T05:47:49.111Z,45.00
2023-04-05T05:50:17.354Z,39.00
2023-04-05T05:52:44.535Z,38.50
2023-04-05T05:55:11.862Z,42.00
2023-04-05T05:57:39.129Z,40.25
2023-04-05T06:00:09.774Z,43.25
2023-04-05T06:02:37.445Z,41.25
2023-04-05T06:05:05.013Z,40.00
2023-04-05T06:07:35.961Z,38.00
2023-04-05T06:10:04.456Z,38.50
2023-04-05T06:12:31.747Z,39.00
2023-04-05T06:14:58.805Z,38.75
2023-04-05T06:17:26.685Z,32.75
2023-04-05T06:19:53.656Z,30.00
2023-04-05T06:22:23.135Z,29.00
2023-04-05T06:24:50.272Z,29.75
2023-04-05T06:27:17.476Z,29.25
2023-04-05T06:29:44.464Z,31.00
2023-04-05T06:32:11.761Z,27.00
2023-04-05T06:34:38.798Z,23.25
2023-04-05T06:37:06.374Z,30.50
2023-04-05T06:39:33.602Z,29.00
2023-04-05T06:42:01.519Z,30.75
2023-04-05T06:44:28.514Z,29.00
2023-04-05T06:46:56.276Z,30.00
2023-04-05T06:49:23.490Z,30.00
2023-04-05T06:51:51.112Z,33.00
2023-04-05T06:54:18.854Z,28.50
2023-04-05T06:56:46.231Z,30.50
2023-04-05T06:59:13.368Z,30.50
2023-04-05T07:01:41.130Z,31.00
2023-04-05T07:04:08.286Z,33.50
2023-04-05T07:06:39.211Z,33.00
2023-04-05T07:09:06.149Z,32.50
2023-04-05T07:11:33.388Z,28.25
2023-04-05T07:14:01.044Z,32.75
2023-04-05T07:16:28.773Z,32.00
2023-04-05T07:18:57.657Z,31.50
2023-04-05T07:21:24.962Z,34.25
2023-04-05T07:23:54.068Z,26.75
2023-04-05T07:26:23.071Z,27.25
2023-04-05T07:28:50.000Z,25.25
2023-04-05T07:31:17.553Z,25.00
2023-04-05T07:33:44.696Z,27.00
2023-04-05T07:36:11.964Z,28.25
2023-04-05T07:38:39.428Z,22.50
2023-04-05T07:41:06.712Z,30.50
2023-04-05T07:43:33.595Z,21.00
2023-04-05T07:46:05.344Z,30.00
2023-04-05T07:48:32.507Z,29.00
2023-04-05T07:51:10.341Z,28.25
2023-04-05T07:53:37.834Z,31.75
2023-04-05T07:56:09.615Z,26.00
2023-04-05T07:58:40.655Z,33.25
2023-04-05T08:01:09.981Z,27.75
2023-04-05T08:03:39.945Z,28.75
2023-04-05T08:06:15.219Z,28.50
2023-04-05T08:08:42.454Z,17.25
2023-04-05T08:11:10.049Z,29.75
2023-04-05T08:13:38.862Z,25.25
2023-04-05T08:16:06.558Z,29.25
2023-04-05T08:18:34.479Z,28.25
2023-04-05T08:21:02.056Z,26.00
2023-04-05T08:23:29.743Z,16.50
2023-04-05T08:25:56.967Z,27.75
2023-04-05T08:28:24.343Z,27.50
2023-04-05T08:30:56.617Z,26.00
2023-04-05T08:33:24.244Z,19.00
2023-04-05T08:35:51.652Z,22.75
2023-04-05T08:38:19.051Z,18.00
2023-04-05T08:40:47.796Z,21.75
2023-04-05T08:43:27.192Z,24.50
2023-04-05T08:45:59.551Z,24.25
2023-04-05T08:48:29.162Z,22.25
2023-04-05T08:50:56.822Z,22.50
2023-04-05T08:53:23.791Z,22.00
2023-04-05T08:55:52.314Z,22.00
2023-04-05T08:58:22.378Z,20.75
2023-04-05T09:00:51.710Z,19.50
2023-04-05T09:03:22.771Z,20.75
2023-04-05T09:05:51.722Z,24.50
2023-04-05T09:08:19.234Z,23.00
2023-04-05T09:10:46.733Z,26.00
2023-04-05T09:13:13.823Z,23.00
2023-04-05T09:15:41.767Z,22.25
2023-04-05T09:18:19.075Z,17.50
2023-04-05T09:21:05.907Z,16.00
2023-04-05T09:23:36.427Z,19.50
2023-04-05T09:26:21.829Z,21.25
2023-04-05T09:28:49.336Z,18.75
2023-04-05T09:31:36.249Z,17.75
2023-04-05T09:34:04.793Z,20.75
2023-04-05T09:36:35.582Z,21.00
2023-04-05T09:39:09.856Z,20.50
2023-04-05T09:41:37.437Z,23.00
2023-04-05T09:44:04.719Z,21.25
2023-04-05T09:46:34.479Z,24.00
2023-04-05T09:49:03.890Z,22.50
2023-04-05T09:51:35.972Z,23.00
2023-04-05T09:54:10.865Z,20.50
2023-04-05T09:56:40.058Z,19.25
2023-04-05T09:59:10.872Z,17.50
2023-04-05T10:01:41.464Z,18.75
2023-04-05T10:04:09.130Z,17.50
2023-04-05T10:06:44.023Z,18.75
2023-04-05T10:09:12.354Z,14.00
2023-04-05T10:11:39.705Z,16.00
2023-04-05T10:14:08.308Z,12.75
2023-04-05T10:16:47.178Z,15.00
2023-04-05T10:19:49.069Z,18.25
2023-04-05T10:22:25.012Z,14.25
2023-04-05T10:25:00.520Z,19.00
2023-04-05T10:27:35.003Z,15.75
2023-04-05T10:30:06.567Z,18.50
2023-04-05T10:32:34.036Z,14.50
2023-04-05T10:35:09.951Z,14.75
2023-04-05T10:37:50.363Z,14.00
2023-04-05T10:40:21.470Z,8.00
2023-04-05T10:42:49.232Z,13.50
2023-04-05T10:45:19.892Z,14.75
2023-04-05T10:48:22.273Z,14.00
2023-04-05T10:50:50.048Z,16.00
2023-04-05T10:53:17.479Z,15.00
2023-04-05T10:55:45.076Z,15.25
2023-04-05T10:58:14.321Z,13.25
2023-04-05T11:00:41.988Z,16.00
2023-04-05T11:03:09.733Z,14.75
2023-04-05T11:05:37.908Z,7.00
2023-04-05T11:08:07.780Z,12.25
2023-04-05T11:10:37.940Z,14.00
2023-04-05T11:13:07.418Z,3.00
2023-04-05T11:15:35.280Z,9.00
2023-04-05T11:18:13.043Z,9.00
2023-04-05T11:20:56.430Z,8.00
2023-04-05T11:23:25.372Z,9.25
2023-04-05T11:26:11.701Z,10.50
2023-04-05T11:28:43.986Z,13.00
2023-04-05T11:31:16.430Z,11.25
2023-04-05T11:34:00.837Z,8.50
2023-04-05T11:36:38.589Z,8.25
2023-04-05T11:39:18.864Z,8.75
2023-04-05T11:41:47.888Z,3.00
2023-04-05T11:44:16.493Z,8.50
2023-04-05T11:46:44.005Z,10.00
2023-04-05T11:49:12.940Z,10.00
2023-04-05T11:51:43.688Z,9.25
2023-04-05T11:54:11.100Z,6.00
2023-04-05T11:56:38.304Z,8.00
2023-04-05T11:59:05.835Z,9.00
2023-04-05T12:01:33.122Z,5.25
2023-04-05T12:04:01.040Z,7.75
2023-04-05T12:06:29.744Z,7.75
2023-04-05T12:08:57.204Z,7.50
2023-04-05T12:11:28.729Z,4.00
2023-04-05T12:14:01.348Z,8.50
2023-04-05T12:16:29.369Z,11.75
2023-04-05T12:18:58.433Z,9.50
2023-04-05T12:21:26.794Z,9.00
2023-04-05T12:23:54.786Z,9.25
2023-04-05T12:26:22.449Z,13.00
2023-04-05T12:28:56.144Z,13.50
2023-04-05T12:31:45.641Z,10.00
2023-04-05T12:34:15.904Z,9.50
2023-04-05T12:36:46.793Z,7.75
2023-04-05T12:39:16.838Z,10.25
2023-04-05T12:41:43.888Z,10.25
2023-04-05T12:44:29.907Z,11.00
2023-04-05T12:47:05.419Z,10.50
2023-04-05T12:49:38.210Z,9.50
2023-04-05T12:52:05.297Z,10.00
2023-04-05T12:54:34.194Z,10.50
2023-04-05T12:57:04.698Z,12.25
2023-04-05T12:59:31.981Z,8.50
2023-04-05T13:01:59.290Z,11.50
2023-04-05T13:04:27.284Z,10.75
2023-04-05T13:06:55.213Z,11.00
2023-04-05T13:09:22.778Z,7.00
2023-04-05T13:11:51.077Z,10.00
2023-04-05T13:14:18.737Z,11.00
2023-04-05T13:16:46.018Z,11.00
2023-04-05T13:19:13.395Z,11.50
2023-04-05T13:21:40.584Z,9.25
2023-04-05T13:24:09.230Z,9.00
2023-04-05T13:26:38.172Z,9.50
2023-04-05T13:29:05.378Z,10.00
2023-04-05T13:31:34.013Z,8.00
2023-04-05T13:34:01.654Z,8.75
2023-04-05T13:36:28.574Z,7.25
2023-04-05T13:38:56.099Z,9.00
2023-04-05T13:41:23.302Z,9.75
2023-04-05T13:43:51.063Z,8.50
2023-04-05T13:46:18.129Z,9.00
2023-04-05T13:48:48.609Z,9.00
2023-04-05T13:51:16.067Z,7.50
2023-04-05T13:53:43.442Z,4.00
2023-04-05T13:56:13.648Z,8.00
2023-04-05T13:58:41.258Z,5.50
2023-04-05T14:01:08.460Z,6.75
2023-04-05T14:03:36.897Z,7.50
2023-04-05T14:06:04.114Z,8.75
2023-04-05T14:08:31.628Z,6.50
2023-04-05T14:10:59.213Z,6.50
2023-04-05T14:13:26.449Z,6.75
2023-04-05T14:15:53.796Z,8.50
2023-04-05T14:18:22.043Z,7.25
2023-04-05T14:20:49.045Z,7.00
2023-04-05T14:23:16.503Z,8.00
2023-04-05T14:25:47.069Z,8.50
2023-04-05T14:28:14.317Z,8.00
2023-04-05T14:30:43.868Z,6.25
2023-04-05T14:33:14.458Z,8.75
2023-04-05T14:35:41.639Z,6.25
2023-04-05T14:38:09.221Z,6.50
2023-04-05T14:40:36.417Z,7.00
2023-04-05T14:43:03.903Z,8.25
2023-04-05T14:45:34.496Z,7.00
2023-04-05T14:48:02.033Z,7.50
2023-04-05T14:50:32.549Z,6.25
2023-04-05T14:53:00.345Z,6.50
2023-04-05T14:55:31.325Z,4.00
2023-04-05T14:57:58.616Z,2.00
2023-04-05T15:00:25.873Z,7.25
2023-04-05T15:02:54.174Z,8.00
2023-04-05T15:05:21.392Z,9.75
2023-04-05T15:07:48.794Z,7.25
2023-04-05T15:10:18.553Z,4.00
2023-04-05T15:12:45.927Z,8.50
2023-04-05T15:15:13.163Z,7.50
2023-04-05T15:17:40.776Z,8.00
2023-04-05T15:20:08.268Z,4.25
2023-04-05T15:22:36.245Z,8.00
2023-04-05T15:25:03.495Z,8.25
2023-04-05T15:27:31.049Z,9.00
2023-04-05T15:29:58.143Z,6.25
2023-04-05T15:32:25.853Z,3.50
2023-04-05T15:34:52.784Z,7.50
2023-04-05T15:37:20.464Z,5.75
2023-04-05T15:39:47.526Z,6.75
2023-04-05T15:42:15.814Z,5.00
2023-04-05T15:44:44.090Z,7.25
2023-04-05T15:47:11.562Z,6.00
2023-04-05T15:49:38.453Z,6.00
2023-04-05T15:52:05.815Z,9.00
2023-04-05T15:54:32.934Z,1.75
2023-04-05T15:57:00.105Z,7.75
2023-04-05T15:59:27.473Z,4.25
2023-04-05T16:01:55.080Z,8.50
2023-04-05T16:04:23.333Z,7.00
2023-04-05T16:06:51.001Z,7.50
2023-04-05T16:09:18.032Z,7.00
2023-04-05T16:11:45.378Z,7.00
2023-04-05T16:14:13.371Z,9.50
2023-04-05T16:16:50.327Z,5.00
2023-04-05T16:19:21.351Z,3.75
2023-04-05T16:21:49.668Z,7.75
2023-04-05T16:24:16.823Z,7.00
2023-04-05T16:26:44.379Z,8.50
2023-04-05T16:29:11.481Z,7.25
2023-04-05T16:31:39.091Z,7.00
2023-04-05T16:34:06.428Z,6.00
2023-04-05T16:36:33.754Z,8.50
2023-04-05T16:39:01.192Z,9.00
2023-04-05T16:41:28.800Z,8.25
2023-04-05T16:43:56.136Z,8.00
2023-04-05T16:46:23.459Z,9.50
2023-04-05T16:48:50.631Z,17.50
2023-04-05T16:51:18.100Z,16.50
2023-04-05T16:53:45.103Z,18.50
2023-04-05T16:56:12.337Z,18.00
2023-04-05T16:58:39.583Z,19.50
2023-04-05T17:01:07.352Z,21.25
2023-04-05T17:03:34.479Z,16.75
2023-04-05T17:06:03.073Z,21.50
2023-04-05T17:08:32.866Z,23.75
2023-04-05T17:11:00.093Z,20.50
2023-04-05T17:13:27.403Z,19.00
2023-04-05T17:15:54.859Z,16.75
2023-04-05T17:18:21.894Z,21.25
2023-04-05T17:20:49.490Z,20.75
2023-04-05T17:23:16.510Z,23.25
2023-04-05T17:25:43.869Z,19.75
2023-04-05T17:28:11.079Z,11.50
2023-04-05T17:30:38.476Z,22.25
2023-04-05T17:33:05.730Z,18.75
2023-04-05T17:35:33.358Z,19.00
2023-04-05T17:38:00.434Z,23.25
2023-04-05T17:40:27.867Z,26.50
2023-04-05T17:42:55.271Z,23.25
2023-04-05T17:45:22.697Z,25.75
2023-04-05T17:47:49.973Z,23.75
2023-04-05T17:50:17.588Z,19.25
2023-04-05T17:52:45.044Z,24.25
2023-04-05T17:55:15.683Z,28.00
2023-04-05T17:57:42.824Z,28.75
2023-04-05T18:00:10.969Z,28.75
2023-04-05T18:02:40.799Z,29.50
2023-04-05T18:05:10.277Z,34.00
2023-04-05T18:07:38.019Z,34.00
2023-04-05T18:10:06.505Z,29.25
2023-04-05T18:12:34.122Z,29.00
2023-04-05T18:15:01.365Z,28.00
2023-04-05T18:17:28.568Z,30.75
2023-04-05T18:19:56.732Z,25.25
2023-04-05T18:22:24.099Z,29.75
2023-04-05T18:24:52.022Z,28.00
2023-04-05T18:27:19.229Z,30.00
2023-04-05T18:29:46.957Z,27.75
2023-04-05T18:32:16.894Z,29.75
2023-04-05T18:34:44.320Z,27.00
2023-04-05T18:37:11.729Z,24.50
2023-04-05T18:39:39.457Z,29.50
2023-04-05T18:42:06.689Z,33.00
2023-04-05T18:44:34.239Z,29.50
2023-04-05T18:47:01.364Z,29.25
2023-04-05T18:49:28.798Z,30.50
2023-04-05T18:51:56.107Z,32.00
2023-04-05T18:54:23.551Z,33.00
2023-04-05T18:56:50.718Z,29.00
2023-04-05T18:59:18.064Z,31.25
2023-04-05T19:01:45.679Z,31.00
2023-04-05T19:04:13.277Z,29.00
2023-04-05T19:06:40.571Z,28.00
2023-04-05T19:09:08.026Z,30.25
2023-04-05T19:11:35.582Z,32.00
2023-04-05T19:14:04.114Z,31.50
2023-04-05T19:16:31.215Z,29.00
2023-04-05T19:18:58.923Z,25.50
2023-04-05T19:21:26.216Z,28.50
2023-04-05T19:23:53.607Z,29.00
2023-04-05T19:26:22.413Z,25.50
2023-04-05T19:28:49.992Z,25.25
2023-04-05T19:31:17.213Z,26.25
2023-04-05T19:33:44.910Z,23.25
2023-04-05T19:36:12.111Z,22.50
2023-04-05T19:38:40.042Z,26.75
2023-04-05T19:41:07.437Z,17.50
2023-04-05T19:43:36.828Z,29.25
2023-04-05T19:46:08.311Z,30.25
2023-04-05T19:48:41.244Z,31.25
2023-04-05T19:51:10.190Z,32.50
2023-04-05T19:53:42.373Z,35.50
2023-04-05T19:56:32.446Z,38.25
2023-04-05T19:59:03.084Z,37.25
2023-04-05T20:01:34.242Z,36.00
2023-04-05T20:04:23.096Z,31.00
2023-04-05T20:06:58.345Z,34.25
2023-04-05T20:09:29.403Z,30.25
2023-04-05T20:12:05.682Z,31.25
2023-04-05T20:14:42.270Z,34.00
2023-04-05T20:17:09.840Z,33.50
2023-04-05T20:19:39.518Z,34.00
2023-04-05T20:22:08.047Z,0.00
2023-04-05T20:24:37.713Z,31.00
2023-04-05T20:27:04.934Z,34.00
2023-04-05T20:29:36.624Z,33.75
2023-04-05T20:32:05.839Z,36.50
2023-04-05T20:34:35.301Z,33.75
2023-04-05T20:37:04.118Z,32.50
2023-04-05T20:39:31.568Z,32.25
2023-04-05T20:41:59.063Z,34.75
2023-04-05T20:44:27.096Z,34.75
2023-04-05T20:46:56.820Z,32.00
2023-04-05T20:49:24.761Z,38.00
2023-04-05T20:51:52.403Z,38.00
2023-04-05T20:54:21.288Z,38.25
2023-04-05T20:56:48.710Z,40.25
2023-04-05T20:59:16.526Z,41.75
2023-04-05T21:01:43.943Z,39.00
2023-04-05T21:04:11.814Z,41.25
2023-04-05T21:06:39.939Z,40.25
2023-04-05T21:09:07.529Z,40.50
2023-04-05T21:11:34.993Z,29.00
2023-04-05T21:14:02.392Z,31.75
2023-04-05T21:16:32.957Z,28.00
2023-04-05T21:19:00.525Z,36.00
2023-04-05T21:21:27.671Z,32.75
2023-04-05T21:23:55.204Z,38.00
2023-04-05T21:26:22.812Z,40.25
2023-04-05T21:28:50.604Z,33.00
2023-04-05T21:31:17.671Z,33.00
2023-04-05T21:33:45.425Z,32.00
2023-04-05T21:36:12.706Z,35.50
2023-04-05T21:38:39.997Z,35.25
2023-04-05T21:41:07.599Z,27.00
2023-04-05T21:43:35.303Z,28.00
2023-04-05T21:46:02.509Z,31.00
2023-04-05T21:48:29.874Z,32.75
2023-04-05T21:50:57.171Z,32.00
2023-04-05T21:53:25.611Z,40.25
2023-04-05T21:55:53.274Z,48.25
2023-04-05T21:58:24.063Z,58.75
2023-04-05T22:00:51.626Z,48.25
2023-04-05T22:03:19.801Z,44.75
2023-04-05T22:05:47.819Z,46.00
2023-04-05T22:08:15.105Z,44.50
2023-04-05T22:10:43.948Z,41.00
2023-04-05T22:13:11.436Z,44.75
2023-04-05T22:15:38.519Z,49.50
2023-04-05T22:18:06.794Z,49.00
2023-04-05T22:20:34.232Z,58.25
2023-04-05T22:23:01.565Z,46.75
2023-04-05T22:25:29.166Z,49.50
2023-04-05T22:28:00.188Z,46.50
2023-04-05T22:30:41.022Z,48.25
2023-04-05T22:33:13.119Z,45.00
2023-04-05T22:35:40.583Z,46.75
2023-04-05T22:38:08.086Z,42.00
2023-04-05T22:40:35.308Z,43.75
2023-04-05T22:43:02.534Z,44.75
2023-04-05T22:45:29.455Z,42.25
2023-04-05T22:48:00.661Z,42.00
2023-04-05T22:50:27.770Z,43.00
2023-04-05T22:52:55.053Z,43.75
2023-04-05T22:55:22.242Z,37.50
2023-04-05T22:57:49.960Z,37.25
2023-04-05T23:00:17.205Z,37.75
2023-04-05T23:02:44.667Z,37.75
2023-04-05T23:05:13.248Z,28.75
2023-04-05T23:07:40.503Z,27.75
2023-04-05T23:10:08.091Z,32.50
2023-04-05T23:12:35.712Z,32.00
2023-04-05T23:15:02.712Z,40.00
2023-04-05T23:17:30.592Z,37.50
2023-04-05T23:19:57.983Z,34.50
2023-04-05T23:22:26.467Z,34.00
2023-04-05T23:24:53.689Z,36.00
2023-04-05T23:27:21.740Z,35.00
2023-04-05T23:29:48.645Z,33.50
2023-04-05T23:32:16.205Z,39.50
2023-04-05T23:34:43.266Z,37.00
2023-04-05T23:37:10.502Z,35.50
2023-04-05T23:39:37.857Z,37.00
2023-04-05T23:42:05.556Z,38.25
2023-04-05T23:44:32.686Z,38.50
2023-04-05T23:46:59.977Z,36.00
2023-04-05T23:49:28.227Z,32.25
2023-04-05T23:51:55.954Z,33.50
2023-04-05T23:54:22.951Z,28.25
2023-04-05T23:56:50.643Z,35.50
2023-04-05T23:59:17.655Z,33.75
